<?xml version="1.0" encoding="UTF-8" standalone="no" ?>
<gpx xmlns="http://www.topografix.com/GPX/1/1" xmlns:xsi="http://www.w3.org/2001/XMLSchema-instance" xsi:schemaLocation="http://www.topografix.com/GPX/1/1 http://www.topografix.com/GPX/1/1/gpx.xsd" version="1.1" creator="VisuGPX - https://www.visugpx.com">
  <metadata>
    <name>GRPVannesJ6_J11</name>
    <desc><![CDATA[gnerando idor: 12438601_12438612_12438617_12438628_12438643_12438715]]></desc>
  </metadata>
  <trk>
    <name><![CDATA[GRPvannesJ8_QuestembertKercohan_22.7km-12438617]]></name>
    <extensions>
      <line xmlns="http://www.topografix.com/GPX/gpx_style/0/2">
        <color>FF0000</color>
        <width>4</width>
      </line>
    </extensions>
    <trkseg>
      <trkpt lat="47.64982" lon="-2.42971">
        <ele>83</ele>
        <time>2023-10-30T18:03:05Z</time>
      </trkpt>
      <trkpt lat="47.64986" lon="-2.43017">
        <ele>82</ele>
        <time>2023-10-30T18:03:47Z</time>
      </trkpt>
      <trkpt lat="47.65001" lon="-2.43127">
        <ele>80</ele>
        <time>2023-10-30T18:05:28Z</time>
      </trkpt>
      <trkpt lat="47.65029" lon="-2.4322">
        <ele>81</ele>
        <time>2023-10-30T18:06:59Z</time>
      </trkpt>
      <trkpt lat="47.65105" lon="-2.43378">
        <ele>71</ele>
        <time>2023-10-30T18:09:54Z</time>
      </trkpt>
      <trkpt lat="47.65152" lon="-2.43495">
        <ele>66</ele>
        <time>2023-10-30T18:11:56Z</time>
      </trkpt>
      <trkpt lat="47.65201" lon="-2.436">
        <ele>64</ele>
        <time>2023-10-30T18:13:51Z</time>
      </trkpt>
      <trkpt lat="47.6524" lon="-2.43697">
        <ele>64</ele>
        <time>2023-10-30T18:15:33Z</time>
      </trkpt>
      <trkpt lat="47.65321" lon="-2.43864">
        <ele>71</ele>
        <time>2023-10-30T18:18:38Z</time>
      </trkpt>
      <trkpt lat="47.65339" lon="-2.43932">
        <ele>73</ele>
        <time>2023-10-30T18:19:43Z</time>
      </trkpt>
      <trkpt lat="47.65373" lon="-2.44035">
        <ele>79</ele>
        <time>2023-10-30T18:21:26Z</time>
      </trkpt>
      <trkpt lat="47.65396" lon="-2.44124">
        <ele>79</ele>
        <time>2023-10-30T18:22:52Z</time>
      </trkpt>
      <trkpt lat="47.65465" lon="-2.44147">
        <ele>83</ele>
        <time>2023-10-30T18:24:26Z</time>
      </trkpt>
      <trkpt lat="47.65528" lon="-2.44153">
        <ele>88</ele>
        <time>2023-10-30T18:25:51Z</time>
      </trkpt>
      <trkpt lat="47.65593" lon="-2.44148">
        <ele>93</ele>
        <time>2023-10-30T18:27:17Z</time>
      </trkpt>
      <trkpt lat="47.6566" lon="-2.44108">
        <ele>99</ele>
        <time>2023-10-30T18:28:54Z</time>
      </trkpt>
      <trkpt lat="47.65713" lon="-2.44099">
        <ele>103</ele>
        <time>2023-10-30T18:30:05Z</time>
      </trkpt>
      <trkpt lat="47.65738" lon="-2.44135">
        <ele>104</ele>
        <time>2023-10-30T18:30:51Z</time>
      </trkpt>
      <trkpt lat="47.658" lon="-2.44264">
        <ele>108</ele>
        <time>2023-10-30T18:33:14Z</time>
      </trkpt>
      <trkpt lat="47.65832" lon="-2.44317">
        <ele>110</ele>
        <time>2023-10-30T18:34:18Z</time>
      </trkpt>
      <trkpt lat="47.65861" lon="-2.44376">
        <ele>110</ele>
        <time>2023-10-30T18:35:24Z</time>
      </trkpt>
      <trkpt lat="47.65913" lon="-2.44537">
        <ele>109</ele>
        <time>2023-10-30T18:38:04Z</time>
      </trkpt>
      <trkpt lat="47.65873" lon="-2.44574">
        <ele>108</ele>
        <time>2023-10-30T18:39:07Z</time>
      </trkpt>
      <trkpt lat="47.65841" lon="-2.44591">
        <ele>107</ele>
        <time>2023-10-30T18:39:52Z</time>
      </trkpt>
      <trkpt lat="47.65839" lon="-2.44644">
        <ele>106</ele>
        <time>2023-10-30T18:40:40Z</time>
      </trkpt>
      <trkpt lat="47.6585" lon="-2.44702">
        <ele>106</ele>
        <time>2023-10-30T18:41:34Z</time>
      </trkpt>
      <trkpt lat="47.65856" lon="-2.44762">
        <ele>107</ele>
        <time>2023-10-30T18:42:29Z</time>
      </trkpt>
      <trkpt lat="47.65867" lon="-2.4477">
        <ele>107</ele>
        <time>2023-10-30T18:42:45Z</time>
      </trkpt>
      <trkpt lat="47.65878" lon="-2.44829">
        <ele>105</ele>
        <time>2023-10-30T18:43:40Z</time>
      </trkpt>
      <trkpt lat="47.65881" lon="-2.44859">
        <ele>105</ele>
        <time>2023-10-30T18:44:07Z</time>
      </trkpt>
      <trkpt lat="47.65907" lon="-2.4485">
        <ele>105</ele>
        <time>2023-10-30T18:44:43Z</time>
      </trkpt>
      <trkpt lat="47.65943" lon="-2.44927">
        <ele>104</ele>
        <time>2023-10-30T18:46:07Z</time>
      </trkpt>
      <trkpt lat="47.65972" lon="-2.4507">
        <ele>101</ele>
        <time>2023-10-30T18:48:21Z</time>
      </trkpt>
      <trkpt lat="47.6599" lon="-2.45135">
        <ele>100</ele>
        <time>2023-10-30T18:49:25Z</time>
      </trkpt>
      <trkpt lat="47.66007" lon="-2.45209">
        <ele>99</ele>
        <time>2023-10-30T18:50:35Z</time>
      </trkpt>
      <trkpt lat="47.66006" lon="-2.45234">
        <ele>99</ele>
        <time>2023-10-30T18:50:57Z</time>
      </trkpt>
      <trkpt lat="47.66032" lon="-2.45248">
        <ele>99</ele>
        <time>2023-10-30T18:51:34Z</time>
      </trkpt>
      <trkpt lat="47.66067" lon="-2.45233">
        <ele>100</ele>
        <time>2023-10-30T18:52:23Z</time>
      </trkpt>
      <trkpt lat="47.66079" lon="-2.4527">
        <ele>100</ele>
        <time>2023-10-30T18:53:00Z</time>
      </trkpt>
      <trkpt lat="47.66115" lon="-2.45346">
        <ele>102</ele>
        <time>2023-10-30T18:54:23Z</time>
      </trkpt>
      <trkpt lat="47.66082" lon="-2.45278">
        <ele>101</ele>
        <time>2023-10-30T18:55:39Z</time>
      </trkpt>
      <trkpt lat="47.66043" lon="-2.45294">
        <ele>99</ele>
        <time>2023-10-30T18:56:33Z</time>
      </trkpt>
      <trkpt lat="47.65991" lon="-2.45248">
        <ele>98</ele>
        <time>2023-10-30T18:57:53Z</time>
      </trkpt>
      <trkpt lat="47.65933" lon="-2.4533">
        <ele>91</ele>
        <time>2023-10-30T18:59:40Z</time>
      </trkpt>
      <trkpt lat="47.65905" lon="-2.4535">
        <ele>89</ele>
        <time>2023-10-30T19:00:22Z</time>
      </trkpt>
      <trkpt lat="47.65847" lon="-2.45348">
        <ele>85</ele>
        <time>2023-10-30T19:01:39Z</time>
      </trkpt>
      <trkpt lat="47.6579" lon="-2.45357">
        <ele>77</ele>
        <time>2023-10-30T19:02:56Z</time>
      </trkpt>
      <trkpt lat="47.65744" lon="-2.45372">
        <ele>71</ele>
        <time>2023-10-30T19:03:59Z</time>
      </trkpt>
      <trkpt lat="47.65682" lon="-2.45414">
        <ele>68</ele>
        <time>2023-10-30T19:05:29Z</time>
      </trkpt>
      <trkpt lat="47.65634" lon="-2.45423">
        <ele>70</ele>
        <time>2023-10-30T19:06:34Z</time>
      </trkpt>
      <trkpt lat="47.65601" lon="-2.45419">
        <ele>72</ele>
        <time>2023-10-30T19:07:18Z</time>
      </trkpt>
      <trkpt lat="47.65571" lon="-2.4538">
        <ele>71</ele>
        <time>2023-10-30T19:08:11Z</time>
      </trkpt>
      <trkpt lat="47.6554" lon="-2.45368">
        <ele>70</ele>
        <time>2023-10-30T19:08:54Z</time>
      </trkpt>
      <trkpt lat="47.65517" lon="-2.45382">
        <ele>71</ele>
        <time>2023-10-30T19:09:27Z</time>
      </trkpt>
      <trkpt lat="47.65507" lon="-2.45391">
        <ele>71</ele>
        <time>2023-10-30T19:09:43Z</time>
      </trkpt>
      <trkpt lat="47.65488" lon="-2.45423">
        <ele>71</ele>
        <time>2023-10-30T19:10:21Z</time>
      </trkpt>
      <trkpt lat="47.65482" lon="-2.45465">
        <ele>73</ele>
        <time>2023-10-30T19:11:00Z</time>
      </trkpt>
      <trkpt lat="47.6545" lon="-2.45501">
        <ele>73</ele>
        <time>2023-10-30T19:11:53Z</time>
      </trkpt>
      <trkpt lat="47.65373" lon="-2.45611">
        <ele>79</ele>
        <time>2023-10-30T19:14:16Z</time>
      </trkpt>
      <trkpt lat="47.65303" lon="-2.45736">
        <ele>87</ele>
        <time>2023-10-30T19:16:42Z</time>
      </trkpt>
      <trkpt lat="47.65227" lon="-2.45819">
        <ele>93</ele>
        <time>2023-10-30T19:18:48Z</time>
      </trkpt>
      <trkpt lat="47.652" lon="-2.45873">
        <ele>94</ele>
        <time>2023-10-30T19:19:49Z</time>
      </trkpt>
      <trkpt lat="47.6513" lon="-2.45927">
        <ele>94</ele>
        <time>2023-10-30T19:21:34Z</time>
      </trkpt>
      <trkpt lat="47.65023" lon="-2.46053">
        <ele>86</ele>
        <time>2023-10-30T19:24:36Z</time>
      </trkpt>
      <trkpt lat="47.64941" lon="-2.46043">
        <ele>74</ele>
        <time>2023-10-30T19:26:26Z</time>
      </trkpt>
      <trkpt lat="47.6485" lon="-2.46026">
        <ele>70</ele>
        <time>2023-10-30T19:28:28Z</time>
      </trkpt>
      <trkpt lat="47.64837" lon="-2.46033">
        <ele>69</ele>
        <time>2023-10-30T19:28:47Z</time>
      </trkpt>
      <trkpt lat="47.64821" lon="-2.46031">
        <ele>70</ele>
        <time>2023-10-30T19:29:08Z</time>
      </trkpt>
      <trkpt lat="47.64806" lon="-2.46041">
        <ele>71</ele>
        <time>2023-10-30T19:29:30Z</time>
      </trkpt>
      <trkpt lat="47.64776" lon="-2.46095">
        <ele>73</ele>
        <time>2023-10-30T19:30:33Z</time>
      </trkpt>
      <trkpt lat="47.64722" lon="-2.46107">
        <ele>76</ele>
        <time>2023-10-30T19:31:46Z</time>
      </trkpt>
      <trkpt lat="47.64642" lon="-2.46116">
        <ele>76</ele>
        <time>2023-10-30T19:33:33Z</time>
      </trkpt>
      <trkpt lat="47.64599" lon="-2.46146">
        <ele>76</ele>
        <time>2023-10-30T19:34:36Z</time>
      </trkpt>
      <trkpt lat="47.64522" lon="-2.46192">
        <ele>73</ele>
        <time>2023-10-30T19:36:27Z</time>
      </trkpt>
      <trkpt lat="47.64439" lon="-2.46248">
        <ele>75</ele>
        <time>2023-10-30T19:38:29Z</time>
      </trkpt>
      <trkpt lat="47.64347" lon="-2.463">
        <ele>76</ele>
        <time>2023-10-30T19:40:40Z</time>
      </trkpt>
      <trkpt lat="47.64221" lon="-2.46352">
        <ele>83</ele>
        <time>2023-10-30T19:43:35Z</time>
      </trkpt>
      <trkpt lat="47.6417" lon="-2.4636">
        <ele>84</ele>
        <time>2023-10-30T19:44:43Z</time>
      </trkpt>
      <trkpt lat="47.64085" lon="-2.46443">
        <ele>85</ele>
        <time>2023-10-30T19:46:59Z</time>
      </trkpt>
      <trkpt lat="47.63955" lon="-2.46587">
        <ele>80</ele>
        <time>2023-10-30T19:50:35Z</time>
      </trkpt>
      <trkpt lat="47.64024" lon="-2.46767">
        <ele>83</ele>
        <time>2023-10-30T19:53:42Z</time>
      </trkpt>
      <trkpt lat="47.64086" lon="-2.46859">
        <ele>80</ele>
        <time>2023-10-30T19:55:39Z</time>
      </trkpt>
      <trkpt lat="47.64135" lon="-2.46987">
        <ele>81</ele>
        <time>2023-10-30T19:57:51Z</time>
      </trkpt>
      <trkpt lat="47.6415" lon="-2.47048">
        <ele>82</ele>
        <time>2023-10-30T19:58:49Z</time>
      </trkpt>
      <trkpt lat="47.64109" lon="-2.47068">
        <ele>81</ele>
        <time>2023-10-30T19:59:47Z</time>
      </trkpt>
      <trkpt lat="47.64082" lon="-2.47212">
        <ele>78</ele>
        <time>2023-10-30T20:02:01Z</time>
      </trkpt>
      <trkpt lat="47.63985" lon="-2.47347">
        <ele>77</ele>
        <time>2023-10-30T20:04:59Z</time>
      </trkpt>
      <trkpt lat="47.63904" lon="-2.47453">
        <ele>78</ele>
        <time>2023-10-30T20:07:23Z</time>
      </trkpt>
      <trkpt lat="47.63862" lon="-2.47525">
        <ele>77</ele>
        <time>2023-10-30T20:08:48Z</time>
      </trkpt>
      <trkpt lat="47.6383" lon="-2.47769">
        <ele>75</ele>
        <time>2023-10-30T20:12:32Z</time>
      </trkpt>
      <trkpt lat="47.63809" lon="-2.47834">
        <ele>71</ele>
        <time>2023-10-30T20:13:37Z</time>
      </trkpt>
      <trkpt lat="47.63772" lon="-2.47848">
        <ele>70</ele>
        <time>2023-10-30T20:14:28Z</time>
      </trkpt>
      <trkpt lat="47.63745" lon="-2.47865">
        <ele>69</ele>
        <time>2023-10-30T20:15:07Z</time>
      </trkpt>
      <trkpt lat="47.63731" lon="-2.47924">
        <ele>67</ele>
        <time>2023-10-30T20:16:03Z</time>
      </trkpt>
      <trkpt lat="47.63742" lon="-2.47991">
        <ele>67</ele>
        <time>2023-10-30T20:17:05Z</time>
      </trkpt>
      <trkpt lat="47.63736" lon="-2.48068">
        <ele>63</ele>
        <time>2023-10-30T20:18:15Z</time>
      </trkpt>
      <trkpt lat="47.63767" lon="-2.48304">
        <ele>55</ele>
        <time>2023-10-30T20:21:51Z</time>
      </trkpt>
      <trkpt lat="47.63659" lon="-2.48388">
        <ele>51</ele>
        <time>2023-10-30T20:24:34Z</time>
      </trkpt>
      <trkpt lat="47.63679" lon="-2.48469">
        <ele>48</ele>
        <time>2023-10-30T20:25:51Z</time>
      </trkpt>
      <trkpt lat="47.63737" lon="-2.48489">
        <ele>47</ele>
        <time>2023-10-30T20:27:11Z</time>
      </trkpt>
      <trkpt lat="47.63777" lon="-2.48516">
        <ele>47</ele>
        <time>2023-10-30T20:28:09Z</time>
      </trkpt>
      <trkpt lat="47.63835" lon="-2.48543">
        <ele>49</ele>
        <time>2023-10-30T20:29:31Z</time>
      </trkpt>
      <trkpt lat="47.639" lon="-2.48556">
        <ele>51</ele>
        <time>2023-10-30T20:30:58Z</time>
      </trkpt>
      <trkpt lat="47.63957" lon="-2.48588">
        <ele>50</ele>
        <time>2023-10-30T20:32:19Z</time>
      </trkpt>
      <trkpt lat="47.63996" lon="-2.486">
        <ele>50</ele>
        <time>2023-10-30T20:33:13Z</time>
      </trkpt>
      <trkpt lat="47.64036" lon="-2.48607">
        <ele>49</ele>
        <time>2023-10-30T20:34:06Z</time>
      </trkpt>
      <trkpt lat="47.64066" lon="-2.48608">
        <ele>48</ele>
        <time>2023-10-30T20:34:46Z</time>
      </trkpt>
      <trkpt lat="47.6408" lon="-2.48616">
        <ele>48</ele>
        <time>2023-10-30T20:35:06Z</time>
      </trkpt>
      <trkpt lat="47.64098" lon="-2.48633">
        <ele>48</ele>
        <time>2023-10-30T20:35:35Z</time>
      </trkpt>
      <trkpt lat="47.6412" lon="-2.48645">
        <ele>48</ele>
        <time>2023-10-30T20:36:06Z</time>
      </trkpt>
      <trkpt lat="47.64105" lon="-2.48718">
        <ele>52</ele>
        <time>2023-10-30T20:37:15Z</time>
      </trkpt>
      <trkpt lat="47.64074" lon="-2.48758">
        <ele>53</ele>
        <time>2023-10-30T20:38:10Z</time>
      </trkpt>
      <trkpt lat="47.64025" lon="-2.48797">
        <ele>53</ele>
        <time>2023-10-30T20:39:24Z</time>
      </trkpt>
      <trkpt lat="47.64002" lon="-2.48865">
        <ele>55</ele>
        <time>2023-10-30T20:40:32Z</time>
      </trkpt>
      <trkpt lat="47.63985" lon="-2.48993">
        <ele>62</ele>
        <time>2023-10-30T20:42:29Z</time>
      </trkpt>
      <trkpt lat="47.64046" lon="-2.49039">
        <ele>65</ele>
        <time>2023-10-30T20:44:01Z</time>
      </trkpt>
      <trkpt lat="47.64067" lon="-2.49128">
        <ele>69</ele>
        <time>2023-10-30T20:45:26Z</time>
      </trkpt>
      <trkpt lat="47.64085" lon="-2.49243">
        <ele>70</ele>
        <time>2023-10-30T20:47:12Z</time>
      </trkpt>
      <trkpt lat="47.64122" lon="-2.49539">
        <ele>75</ele>
        <time>2023-10-30T20:51:42Z</time>
      </trkpt>
      <trkpt lat="47.6413" lon="-2.49633">
        <ele>78</ele>
        <time>2023-10-30T20:53:08Z</time>
      </trkpt>
      <trkpt lat="47.64111" lon="-2.49748">
        <ele>79</ele>
        <time>2023-10-30T20:54:54Z</time>
      </trkpt>
      <trkpt lat="47.64131" lon="-2.49766">
        <ele>79</ele>
        <time>2023-10-30T20:55:25Z</time>
      </trkpt>
      <trkpt lat="47.64069" lon="-2.49841">
        <ele>79</ele>
        <time>2023-10-30T20:57:12Z</time>
      </trkpt>
      <trkpt lat="47.63944" lon="-2.49933">
        <ele>77</ele>
        <time>2023-10-30T21:00:18Z</time>
      </trkpt>
      <trkpt lat="47.63903" lon="-2.49939">
        <ele>76</ele>
        <time>2023-10-30T21:01:13Z</time>
      </trkpt>
      <trkpt lat="47.6384" lon="-2.4993">
        <ele>77</ele>
        <time>2023-10-30T21:02:38Z</time>
      </trkpt>
      <trkpt lat="47.63769" lon="-2.49972">
        <ele>80</ele>
        <time>2023-10-30T21:04:20Z</time>
      </trkpt>
      <trkpt lat="47.63723" lon="-2.50042">
        <ele>80</ele>
        <time>2023-10-30T21:05:48Z</time>
      </trkpt>
      <trkpt lat="47.63669" lon="-2.50056">
        <ele>81</ele>
        <time>2023-10-30T21:07:01Z</time>
      </trkpt>
      <trkpt lat="47.63628" lon="-2.50059">
        <ele>78</ele>
        <time>2023-10-30T21:07:55Z</time>
      </trkpt>
      <trkpt lat="47.63596" lon="-2.50066">
        <ele>77</ele>
        <time>2023-10-30T21:08:39Z</time>
      </trkpt>
      <trkpt lat="47.63571" lon="-2.50103">
        <ele>74</ele>
        <time>2023-10-30T21:09:26Z</time>
      </trkpt>
      <trkpt lat="47.63549" lon="-2.50148">
        <ele>73</ele>
        <time>2023-10-30T21:10:16Z</time>
      </trkpt>
      <trkpt lat="47.63527" lon="-2.50169">
        <ele>73</ele>
        <time>2023-10-30T21:10:51Z</time>
      </trkpt>
      <trkpt lat="47.63508" lon="-2.502">
        <ele>74</ele>
        <time>2023-10-30T21:11:28Z</time>
      </trkpt>
      <trkpt lat="47.63489" lon="-2.50246">
        <ele>76</ele>
        <time>2023-10-30T21:12:17Z</time>
      </trkpt>
      <trkpt lat="47.63423" lon="-2.50298">
        <ele>73</ele>
        <time>2023-10-30T21:13:57Z</time>
      </trkpt>
      <trkpt lat="47.63363" lon="-2.50397">
        <ele>67</ele>
        <time>2023-10-30T21:15:56Z</time>
      </trkpt>
      <trkpt lat="47.63323" lon="-2.5045">
        <ele>60</ele>
        <time>2023-10-30T21:17:08Z</time>
      </trkpt>
      <trkpt lat="47.63266" lon="-2.50518">
        <ele>53</ele>
        <time>2023-10-30T21:18:45Z</time>
      </trkpt>
      <trkpt lat="47.63253" lon="-2.506">
        <ele>54</ele>
        <time>2023-10-30T21:20:01Z</time>
      </trkpt>
      <trkpt lat="47.6325" lon="-2.50683">
        <ele>56</ele>
        <time>2023-10-30T21:21:16Z</time>
      </trkpt>
      <trkpt lat="47.63287" lon="-2.50766">
        <ele>57</ele>
        <time>2023-10-30T21:22:45Z</time>
      </trkpt>
      <trkpt lat="47.63322" lon="-2.5086">
        <ele>58</ele>
        <time>2023-10-30T21:24:22Z</time>
      </trkpt>
      <trkpt lat="47.63326" lon="-2.5101">
        <ele>63</ele>
        <time>2023-10-30T21:26:37Z</time>
      </trkpt>
      <trkpt lat="47.63321" lon="-2.51146">
        <ele>68</ele>
        <time>2023-10-30T21:28:40Z</time>
      </trkpt>
      <trkpt lat="47.6336" lon="-2.51283">
        <ele>72</ele>
        <time>2023-10-30T21:30:53Z</time>
      </trkpt>
      <trkpt lat="47.63372" lon="-2.51434">
        <ele>75</ele>
        <time>2023-10-30T21:33:10Z</time>
      </trkpt>
      <trkpt lat="47.63378" lon="-2.51551">
        <ele>76</ele>
        <time>2023-10-30T21:34:56Z</time>
      </trkpt>
      <trkpt lat="47.63388" lon="-2.51592">
        <ele>77</ele>
        <time>2023-10-30T21:35:35Z</time>
      </trkpt>
      <trkpt lat="47.63278" lon="-2.51575">
        <ele>77</ele>
        <time>2023-10-30T21:38:02Z</time>
      </trkpt>
      <trkpt lat="47.63176" lon="-2.51536">
        <ele>77</ele>
        <time>2023-10-30T21:40:23Z</time>
      </trkpt>
      <trkpt lat="47.63117" lon="-2.51484">
        <ele>77</ele>
        <time>2023-10-30T21:41:54Z</time>
      </trkpt>
      <trkpt lat="47.6301" lon="-2.51404">
        <ele>76</ele>
        <time>2023-10-30T21:44:34Z</time>
      </trkpt>
      <trkpt lat="47.62956" lon="-2.51407">
        <ele>77</ele>
        <time>2023-10-30T21:45:46Z</time>
      </trkpt>
      <trkpt lat="47.63064" lon="-2.51849">
        <ele>73</ele>
        <time>2023-10-30T21:52:49Z</time>
      </trkpt>
      <trkpt lat="47.63079" lon="-2.51971">
        <ele>74</ele>
        <time>2023-10-30T21:54:41Z</time>
      </trkpt>
      <trkpt lat="47.63147" lon="-2.5218">
        <ele>79</ele>
        <time>2023-10-30T21:58:10Z</time>
      </trkpt>
      <trkpt lat="47.63051" lon="-2.52268">
        <ele>75</ele>
        <time>2023-10-30T22:00:40Z</time>
      </trkpt>
      <trkpt lat="47.6297" lon="-2.52317">
        <ele>72</ele>
        <time>2023-10-30T22:02:37Z</time>
      </trkpt>
      <trkpt lat="47.62996" lon="-2.52374">
        <ele>73</ele>
        <time>2023-10-30T22:03:39Z</time>
      </trkpt>
      <trkpt lat="47.63028" lon="-2.52378">
        <ele>74</ele>
        <time>2023-10-30T22:04:22Z</time>
      </trkpt>
      <trkpt lat="47.63078" lon="-2.52475">
        <ele>74</ele>
        <time>2023-10-30T22:06:11Z</time>
      </trkpt>
      <trkpt lat="47.631" lon="-2.52566">
        <ele>73</ele>
        <time>2023-10-30T22:07:38Z</time>
      </trkpt>
      <trkpt lat="47.63118" lon="-2.52616">
        <ele>73</ele>
        <time>2023-10-30T22:08:29Z</time>
      </trkpt>
      <trkpt lat="47.63129" lon="-2.52655">
        <ele>72</ele>
        <time>2023-10-30T22:09:07Z</time>
      </trkpt>
      <trkpt lat="47.63125" lon="-2.52698">
        <ele>71</ele>
        <time>2023-10-30T22:09:46Z</time>
      </trkpt>
      <trkpt lat="47.63145" lon="-2.52717">
        <ele>71</ele>
        <time>2023-10-30T22:10:18Z</time>
      </trkpt>
      <trkpt lat="47.63219" lon="-2.5261">
        <ele>74</ele>
        <time>2023-10-30T22:12:36Z</time>
      </trkpt>
      <trkpt lat="47.63255" lon="-2.52607">
        <ele>75</ele>
        <time>2023-10-30T22:13:24Z</time>
      </trkpt>
      <trkpt lat="47.63277" lon="-2.52582">
        <ele>75</ele>
        <time>2023-10-30T22:14:01Z</time>
      </trkpt>
      <trkpt lat="47.633" lon="-2.52567">
        <ele>75</ele>
        <time>2023-10-30T22:14:35Z</time>
      </trkpt>
      <trkpt lat="47.63305" lon="-2.52558">
        <ele>75</ele>
        <time>2023-10-30T22:14:45Z</time>
      </trkpt>
      <trkpt lat="47.63313" lon="-2.52519">
        <ele>76</ele>
        <time>2023-10-30T22:15:22Z</time>
      </trkpt>
      <trkpt lat="47.63317" lon="-2.52511">
        <ele>76</ele>
        <time>2023-10-30T22:15:31Z</time>
      </trkpt>
      <trkpt lat="47.6332" lon="-2.52468">
        <ele>77</ele>
        <time>2023-10-30T22:16:10Z</time>
      </trkpt>
      <trkpt lat="47.63364" lon="-2.52433">
        <ele>77</ele>
        <time>2023-10-30T22:17:16Z</time>
      </trkpt>
      <trkpt lat="47.63491" lon="-2.52308">
        <ele>78</ele>
        <time>2023-10-30T22:20:40Z</time>
      </trkpt>
      <trkpt lat="47.63563" lon="-2.52248">
        <ele>82</ele>
        <time>2023-10-30T22:22:30Z</time>
      </trkpt>
      <trkpt lat="47.63584" lon="-2.52173">
        <ele>82</ele>
        <time>2023-10-30T22:23:43Z</time>
      </trkpt>
      <trkpt lat="47.6359" lon="-2.52097">
        <ele>82</ele>
        <time>2023-10-30T22:24:52Z</time>
      </trkpt>
      <trkpt lat="47.63644" lon="-2.52039">
        <ele>86</ele>
        <time>2023-10-30T22:26:21Z</time>
      </trkpt>
      <trkpt lat="47.63695" lon="-2.51997">
        <ele>89</ele>
        <time>2023-10-30T22:27:38Z</time>
      </trkpt>
      <trkpt lat="47.6375" lon="-2.51909">
        <ele>90</ele>
        <time>2023-10-30T22:29:26Z</time>
      </trkpt>
      <trkpt lat="47.63788" lon="-2.51795">
        <ele>87</ele>
        <time>2023-10-30T22:31:21Z</time>
      </trkpt>
      <trkpt lat="47.63817" lon="-2.51745">
        <ele>85</ele>
        <time>2023-10-30T22:32:20Z</time>
      </trkpt>
      <trkpt lat="47.63892" lon="-2.51572">
        <ele>85</ele>
        <time>2023-10-30T22:35:25Z</time>
      </trkpt>
      <trkpt lat="47.63905" lon="-2.51449">
        <ele>85</ele>
        <time>2023-10-30T22:37:17Z</time>
      </trkpt>
      <trkpt lat="47.64053" lon="-2.5133">
        <ele>83</ele>
        <time>2023-10-30T22:41:02Z</time>
      </trkpt>
      <trkpt lat="47.64065" lon="-2.51271">
        <ele>83</ele>
        <time>2023-10-30T22:41:57Z</time>
      </trkpt>
      <trkpt lat="47.64301" lon="-2.51213">
        <ele>77</ele>
        <time>2023-10-30T22:47:16Z</time>
      </trkpt>
      <trkpt lat="47.64329" lon="-2.51231">
        <ele>77</ele>
        <time>2023-10-30T22:47:57Z</time>
      </trkpt>
      <trkpt lat="47.64315" lon="-2.51283">
        <ele>80</ele>
        <time>2023-10-30T22:48:47Z</time>
      </trkpt>
      <trkpt lat="47.6429" lon="-2.51332">
        <ele>83</ele>
        <time>2023-10-30T22:49:42Z</time>
      </trkpt>
      <trkpt lat="47.6429" lon="-2.51371">
        <ele>82</ele>
        <time>2023-10-30T22:50:18Z</time>
      </trkpt>
      <trkpt lat="47.64321" lon="-2.51448">
        <ele>79</ele>
        <time>2023-10-30T22:51:38Z</time>
      </trkpt>
      <trkpt lat="47.64334" lon="-2.51452">
        <ele>78</ele>
        <time>2023-10-30T22:51:56Z</time>
      </trkpt>
      <trkpt lat="47.64365" lon="-2.51418">
        <ele>80</ele>
        <time>2023-10-30T22:52:47Z</time>
      </trkpt>
      <trkpt lat="47.64414" lon="-2.51436">
        <ele>81</ele>
        <time>2023-10-30T22:53:55Z</time>
      </trkpt>
      <trkpt lat="47.6444" lon="-2.51452">
        <ele>83</ele>
        <time>2023-10-30T22:54:32Z</time>
      </trkpt>
      <trkpt lat="47.64581" lon="-2.51676">
        <ele>87</ele>
        <time>2023-10-30T22:59:08Z</time>
      </trkpt>
      <trkpt lat="47.64577" lon="-2.51514">
        <ele>89</ele>
        <time>2023-10-30T23:01:34Z</time>
      </trkpt>
      <trkpt lat="47.64583" lon="-2.51291">
        <ele>84</ele>
        <time>2023-10-30T23:04:54Z</time>
      </trkpt>
      <trkpt lat="47.64643" lon="-2.51237">
        <ele>84</ele>
        <time>2023-10-30T23:06:28Z</time>
      </trkpt>
      <trkpt lat="47.64725" lon="-2.51201">
        <ele>86</ele>
        <time>2023-10-30T23:08:22Z</time>
      </trkpt>
      <trkpt lat="47.64835" lon="-2.51171">
        <ele>88</ele>
        <time>2023-10-30T23:10:51Z</time>
      </trkpt>
      <trkpt lat="47.64886" lon="-2.51177">
        <ele>86</ele>
        <time>2023-10-30T23:12:00Z</time>
      </trkpt>
      <trkpt lat="47.64884" lon="-2.51061">
        <ele>82</ele>
        <time>2023-10-30T23:13:44Z</time>
      </trkpt>
      <trkpt lat="47.64987" lon="-2.50943">
        <ele>74</ele>
        <time>2023-10-30T23:16:37Z</time>
      </trkpt>
      <trkpt lat="47.64932" lon="-2.50776">
        <ele>70</ele>
        <time>2023-10-30T23:19:25Z</time>
      </trkpt>
      <trkpt lat="47.64982" lon="-2.50778">
        <ele>69</ele>
        <time>2023-10-30T23:20:31Z</time>
      </trkpt>
      <trkpt lat="47.65072" lon="-2.51204">
        <ele>83</ele>
        <time>2023-10-30T23:27:13Z</time>
      </trkpt>
      <trkpt lat="47.65076" lon="-2.51447">
        <ele>84</ele>
        <time>2023-10-30T23:30:51Z</time>
      </trkpt>
      <trkpt lat="47.65038" lon="-2.51486">
        <ele>85</ele>
        <time>2023-10-30T23:31:53Z</time>
      </trkpt>
      <trkpt lat="47.64996" lon="-2.51626">
        <ele>86</ele>
        <time>2023-10-30T23:34:11Z</time>
      </trkpt>
      <trkpt lat="47.64931" lon="-2.51683">
        <ele>88</ele>
        <time>2023-10-30T23:35:51Z</time>
      </trkpt>
      <trkpt lat="47.64865" lon="-2.51797">
        <ele>91</ele>
        <time>2023-10-30T23:38:06Z</time>
      </trkpt>
      <trkpt lat="47.65116" lon="-2.5193">
        <ele>104</ele>
        <time>2023-10-30T23:44:02Z</time>
      </trkpt>
      <trkpt lat="47.65148" lon="-2.51983">
        <ele>107</ele>
        <time>2023-10-30T23:45:06Z</time>
      </trkpt>
      <trkpt lat="47.65199" lon="-2.52115">
        <ele>112</ele>
        <time>2023-10-30T23:47:23Z</time>
      </trkpt>
      <trkpt lat="47.65185" lon="-2.52332">
        <ele>114</ele>
        <time>2023-10-30T23:50:39Z</time>
      </trkpt>
      <trkpt lat="47.65057" lon="-2.52368">
        <ele>118</ele>
        <time>2023-10-30T23:53:33Z</time>
      </trkpt>
      <trkpt lat="47.65036" lon="-2.52712">
        <ele>121</ele>
        <time>2023-10-30T23:58:43Z</time>
      </trkpt>
      <trkpt lat="47.65015" lon="-2.52726">
        <ele>121</ele>
        <time>2023-10-30T23:59:14Z</time>
      </trkpt>
      <trkpt lat="47.64955" lon="-2.52779">
        <ele>121</ele>
        <time>2023-10-31T00:00:47Z</time>
      </trkpt>
      <trkpt lat="47.64976" lon="-2.52831">
        <ele>123</ele>
        <time>2023-10-31T00:01:42Z</time>
      </trkpt>
      <trkpt lat="47.64935" lon="-2.52941">
        <ele>120</ele>
        <time>2023-10-31T00:03:35Z</time>
      </trkpt>
      <trkpt lat="47.64921" lon="-2.53023">
        <ele>115</ele>
        <time>2023-10-31T00:04:51Z</time>
      </trkpt>
      <trkpt lat="47.64909" lon="-2.53075">
        <ele>112</ele>
        <time>2023-10-31T00:05:40Z</time>
      </trkpt>
      <trkpt lat="47.64822" lon="-2.53113">
        <ele>108</ele>
        <time>2023-10-31T00:07:41Z</time>
      </trkpt>
      <trkpt lat="47.64802" lon="-2.53154">
        <ele>105</ele>
        <time>2023-10-31T00:08:27Z</time>
      </trkpt>
      <trkpt lat="47.64736" lon="-2.53179">
        <ele>99</ele>
        <time>2023-10-31T00:09:58Z</time>
      </trkpt>
      <trkpt lat="47.6476" lon="-2.53425">
        <ele>103</ele>
        <time>2023-10-31T00:13:41Z</time>
      </trkpt>
      <trkpt lat="47.64816" lon="-2.5353">
        <ele>104</ele>
        <time>2023-10-31T00:15:41Z</time>
      </trkpt>
      <trkpt lat="47.64844" lon="-2.53572">
        <ele>104</ele>
        <time>2023-10-31T00:16:35Z</time>
      </trkpt>
      <trkpt lat="47.64908" lon="-2.53646">
        <ele>108</ele>
        <time>2023-10-31T00:18:23Z</time>
      </trkpt>
      <trkpt lat="47.65017" lon="-2.53808">
        <ele>111</ele>
        <time>2023-10-31T00:21:49Z</time>
      </trkpt>
      <trkpt lat="47.65127" lon="-2.53944">
        <ele>110</ele>
        <time>2023-10-31T00:25:00Z</time>
      </trkpt>
      <trkpt lat="47.65245" lon="-2.54063">
        <ele>110</ele>
        <time>2023-10-31T00:28:10Z</time>
      </trkpt>
      <trkpt lat="47.65177" lon="-2.54092">
        <ele>103</ele>
        <time>2023-10-31T00:29:44Z</time>
      </trkpt>
      <trkpt lat="47.65133" lon="-2.54162">
        <ele>100</ele>
        <time>2023-10-31T00:31:10Z</time>
      </trkpt>
      <trkpt lat="47.65066" lon="-2.5418">
        <ele>95</ele>
        <time>2023-10-31T00:32:41Z</time>
      </trkpt>
      <trkpt lat="47.65017" lon="-2.54175">
        <ele>95</ele>
        <time>2023-10-31T00:33:47Z</time>
      </trkpt>
      <trkpt lat="47.64907" lon="-2.5418">
        <ele>91</ele>
        <time>2023-10-31T00:36:14Z</time>
      </trkpt>
      <trkpt lat="47.64951" lon="-2.54389">
        <ele>99</ele>
        <time>2023-10-31T00:39:31Z</time>
      </trkpt>
      <trkpt lat="47.65007" lon="-2.54558">
        <ele>107</ele>
        <time>2023-10-31T00:42:20Z</time>
      </trkpt>
      <trkpt lat="47.65038" lon="-2.5462">
        <ele>111</ele>
        <time>2023-10-31T00:43:29Z</time>
      </trkpt>
      <trkpt lat="47.65062" lon="-2.54696">
        <ele>114</ele>
        <time>2023-10-31T00:44:45Z</time>
      </trkpt>
      <trkpt lat="47.65073" lon="-2.5476">
        <ele>116</ele>
        <time>2023-10-31T00:45:44Z</time>
      </trkpt>
      <trkpt lat="47.65063" lon="-2.5499">
        <ele>105</ele>
        <time>2023-10-31T00:49:11Z</time>
      </trkpt>
      <trkpt lat="47.65036" lon="-2.55057">
        <ele>103</ele>
        <time>2023-10-31T00:50:22Z</time>
      </trkpt>
      <trkpt lat="47.65002" lon="-2.55222">
        <ele>105</ele>
        <time>2023-10-31T00:52:57Z</time>
      </trkpt>
      <trkpt lat="47.6506" lon="-2.55295">
        <ele>103</ele>
        <time>2023-10-31T00:54:38Z</time>
      </trkpt>
      <trkpt lat="47.65122" lon="-2.55358">
        <ele>102</ele>
        <time>2023-10-31T00:56:18Z</time>
      </trkpt>
      <trkpt lat="47.65147" lon="-2.55361">
        <ele>101</ele>
        <time>2023-10-31T00:56:52Z</time>
      </trkpt>
      <trkpt lat="47.65168" lon="-2.55353">
        <ele>101</ele>
        <time>2023-10-31T00:57:21Z</time>
      </trkpt>
      <trkpt lat="47.65207" lon="-2.55345">
        <ele>100</ele>
        <time>2023-10-31T00:58:13Z</time>
      </trkpt>
      <trkpt lat="47.65245" lon="-2.5538">
        <ele>98</ele>
        <time>2023-10-31T00:59:13Z</time>
      </trkpt>
      <trkpt lat="47.65253" lon="-2.55496">
        <ele>95</ele>
        <time>2023-10-31T01:00:58Z</time>
      </trkpt>
      <trkpt lat="47.65249" lon="-2.55682">
        <ele>94</ele>
        <time>2023-10-31T01:03:45Z</time>
      </trkpt>
      <trkpt lat="47.65253" lon="-2.55736">
        <ele>92</ele>
        <time>2023-10-31T01:04:34Z</time>
      </trkpt>
      <trkpt lat="47.65232" lon="-2.55764">
        <ele>93</ele>
        <time>2023-10-31T01:05:12Z</time>
      </trkpt>
      <trkpt lat="47.6519" lon="-2.55766">
        <ele>95</ele>
        <time>2023-10-31T01:06:08Z</time>
      </trkpt>
      <trkpt lat="47.65148" lon="-2.55743">
        <ele>96</ele>
        <time>2023-10-31T01:07:07Z</time>
      </trkpt>
      <trkpt lat="47.65105" lon="-2.55764">
        <ele>95</ele>
        <time>2023-10-31T01:08:08Z</time>
      </trkpt>
      <trkpt lat="47.65042" lon="-2.55761">
        <ele>94</ele>
        <time>2023-10-31T01:09:32Z</time>
      </trkpt>
      <trkpt lat="47.65011" lon="-2.55748">
        <ele>94</ele>
        <time>2023-10-31T01:10:15Z</time>
      </trkpt>
      <trkpt lat="47.64977" lon="-2.5577">
        <ele>97</ele>
        <time>2023-10-31T01:11:04Z</time>
      </trkpt>
      <trkpt lat="47.64964" lon="-2.55819">
        <ele>97</ele>
        <time>2023-10-31T01:11:52Z</time>
      </trkpt>
      <trkpt lat="47.64969" lon="-2.55884">
        <ele>97</ele>
        <time>2023-10-31T01:12:51Z</time>
      </trkpt>
      <trkpt lat="47.64991" lon="-2.56058">
        <ele>90</ele>
        <time>2023-10-31T01:15:30Z</time>
      </trkpt>
      <trkpt lat="47.64981" lon="-2.56094">
        <ele>90</ele>
        <time>2023-10-31T01:16:05Z</time>
      </trkpt>
      <trkpt lat="47.64968" lon="-2.56128">
        <ele>90</ele>
        <time>2023-10-31T01:16:40Z</time>
      </trkpt>
      <trkpt lat="47.64905" lon="-2.56231">
        <ele>82</ele>
        <time>2023-10-31T01:18:45Z</time>
      </trkpt>
      <trkpt lat="47.64861" lon="-2.56257">
        <ele>83</ele>
        <time>2023-10-31T01:19:48Z</time>
      </trkpt>
      <trkpt lat="47.64726" lon="-2.56397">
        <ele>77</ele>
        <time>2023-10-31T01:23:28Z</time>
      </trkpt>
      <trkpt lat="47.64714" lon="-2.56354">
        <ele>83</ele>
        <time>2023-10-31T01:24:10Z</time>
      </trkpt>
      <trkpt lat="47.64704" lon="-2.56333">
        <ele>86</ele>
        <time>2023-10-31T01:24:33Z</time>
      </trkpt>
      <trkpt lat="47.64666" lon="-2.56343">
        <ele>87</ele>
        <time>2023-10-31T01:25:24Z</time>
      </trkpt>
      <trkpt lat="47.64663" lon="-2.56321">
        <ele>90</ele>
        <time>2023-10-31T01:25:45Z</time>
      </trkpt>
      <trkpt lat="47.6464" lon="-2.56309">
        <ele>89</ele>
        <time>2023-10-31T01:26:17Z</time>
      </trkpt>
      <trkpt lat="47.64662" lon="-2.56256">
        <ele>97</ele>
        <time>2023-10-31T01:27:13Z</time>
      </trkpt>
      <trkpt lat="47.64661" lon="-2.56205">
        <ele>99</ele>
        <time>2023-10-31T01:27:59Z</time>
      </trkpt>
      <trkpt lat="47.64643" lon="-2.56185">
        <ele>98</ele>
        <time>2023-10-31T01:28:29Z</time>
      </trkpt>
      <trkpt lat="47.64621" lon="-2.56078">
        <ele>100</ele>
        <time>2023-10-31T01:30:10Z</time>
      </trkpt>
      <trkpt lat="47.64625" lon="-2.56054">
        <ele>101</ele>
        <time>2023-10-31T01:30:32Z</time>
      </trkpt>
      <trkpt lat="47.64565" lon="-2.55929">
        <ele>105</ele>
        <time>2023-10-31T01:32:50Z</time>
      </trkpt>
      <trkpt lat="47.64496" lon="-2.55756">
        <ele>106</ele>
        <time>2023-10-31T01:35:50Z</time>
      </trkpt>
      <trkpt lat="47.64398" lon="-2.55691">
        <ele>100</ele>
        <time>2023-10-31T01:38:14Z</time>
      </trkpt>
    </trkseg>
  </trk>
</gpx>